createdAt,value
2024-03-16T00:01:56.264Z,11.60
2024-03-16T00:04:24.497Z,11.60
2024-03-16T00:06:52.072Z,11.60
2024-03-16T00:09:21.151Z,11.50
2024-03-16T00:11:49.168Z,11.50
2024-03-16T00:14:16.688Z,11.50
2024-03-16T00:16:44.495Z,11.50
2024-03-16T00:19:12.127Z,11.40
2024-03-16T00:21:39.884Z,11.40
2024-03-16T00:24:09.486Z,11.30
2024-03-16T00:26:37.053Z,11.30
2024-03-16T00:29:08.504Z,11.30
2024-03-16T00:31:36.432Z,11.30
2024-03-16T00:34:06.820Z,11.30
2024-03-16T00:36:34.505Z,11.20
2024-03-16T00:39:02.713Z,11.20
2024-03-16T00:41:30.260Z,11.20
2024-03-16T00:43:57.808Z,11.20
2024-03-16T00:46:26.378Z,11.20
2024-03-16T00:48:54.067Z,11.20
2024-03-16T00:51:21.879Z,11.10
2024-03-16T00:53:49.474Z,11.10
2024-03-16T00:56:17.039Z,11.10
2024-03-16T00:58:44.501Z,11.00
2024-03-16T01:01:12.280Z,11.00
2024-03-16T01:03:40.559Z,11.00
2024-03-16T01:06:08.137Z,11.00
2024-03-16T01:08:35.856Z,11.00
2024-03-16T01:11:03.884Z,10.90
2024-03-16T01:13:31.504Z,10.90
2024-03-16T01:15:59.133Z,10.90
2024-03-16T01:18:26.653Z,10.90
2024-03-16T01:20:54.290Z,10.90
2024-03-16T01:23:21.814Z,10.90
2024-03-16T01:25:50.915Z,10.80
2024-03-16T01:28:18.385Z,10.80
2024-03-16T01:30:45.998Z,10.80
2024-03-16T01:33:13.575Z,10.80
2024-03-16T01:35:41.309Z,10.80
2024-03-16T01:38:09.866Z,10.80
2024-03-16T01:40:37.378Z,10.80
2024-03-16T01:43:05.140Z,10.70
2024-03-16T01:45:33.786Z,10.70
2024-03-16T01:48:05.485Z,10.70
2024-03-16T01:50:33.915Z,10.70
2024-03-16T01:53:01.430Z,10.70
2024-03-16T01:55:29.809Z,10.70
2024-03-16T01:57:57.508Z,10.70
2024-03-16T02:00:27.445Z,10.70
2024-03-16T02:02:55.691Z,10.70
2024-03-16T02:05:23.520Z,10.70
2024-03-16T02:07:51.203Z,10.60
2024-03-16T02:10:19.519Z,10.70
2024-03-16T02:12:47.150Z,10.70
2024-03-16T02:15:14.959Z,10.70
2024-03-16T02:17:42.881Z,10.60
2024-03-16T02:20:16.077Z,10.60
2024-03-16T02:22:44.148Z,10.60
2024-03-16T02:25:12.160Z,10.60
2024-03-16T02:27:40.204Z,10.60
2024-03-16T02:30:11.713Z,10.50
2024-03-16T02:32:40.081Z,10.50
2024-03-16T02:35:10.266Z,10.50
2024-03-16T02:37:37.972Z,10.50
2024-03-16T02:40:06.769Z,10.50
2024-03-16T02:42:36.512Z,10.50
2024-03-16T02:45:04.558Z,10.50
2024-03-16T02:47:33.599Z,10.50
2024-03-16T02:50:04.921Z,10.50
2024-03-16T02:52:32.972Z,10.50
2024-03-16T02:55:00.506Z,10.50
2024-03-16T02:57:28.044Z,10.50
2024-03-16T02:59:56.073Z,10.50
2024-03-16T03:02:24.773Z,10.50
2024-03-16T03:04:52.463Z,10.50
2024-03-16T03:07:20.034Z,10.50
2024-03-16T03:09:48.175Z,10.50
2024-03-16T03:12:15.743Z,10.50
2024-03-16T03:14:43.283Z,10.50
2024-03-16T03:17:10.775Z,10.50
2024-03-16T03:19:38.426Z,10.50
2024-03-16T03:22:06.460Z,10.50
2024-03-16T03:24:34.092Z,10.60
2024-03-16T03:27:01.754Z,10.60
2024-03-16T03:29:29.210Z,10.60
2024-03-16T03:31:58.256Z,10.60
2024-03-16T03:34:26.466Z,10.60
2024-03-16T03:36:54.182Z,10.60
2024-03-16T03:39:21.834Z,10.60
2024-03-16T03:41:49.979Z,10.60
2024-03-16T03:44:25.359Z,10.60
2024-03-16T03:46:53.348Z,10.60
2024-03-16T03:49:29.719Z,10.60
2024-03-16T03:52:02.678Z,10.70
2024-03-16T03:54:32.746Z,10.70
2024-03-16T03:57:00.393Z,10.70
2024-03-16T03:59:27.945Z,10.70
2024-03-16T04:01:55.861Z,10.70
2024-03-16T04:04:23.406Z,10.80
2024-03-16T04:06:51.048Z,10.70
2024-03-16T04:09:18.632Z,10.70
2024-03-16T04:11:46.141Z,10.70
2024-03-16T04:14:13.691Z,10.80
2024-03-16T04:16:41.271Z,10.80
2024-03-16T04:19:09.091Z,10.80
2024-03-16T04:21:36.856Z,10.80
2024-03-16T04:24:04.520Z,10.80
2024-03-16T04:26:31.989Z,10.80
2024-03-16T04:28:59.452Z,10.80
2024-03-16T04:31:27.834Z,10.80
2024-03-16T04:33:55.788Z,10.80
2024-03-16T04:36:24.054Z,10.80
2024-03-16T04:38:51.590Z,10.80
2024-03-16T04:41:20.585Z,10.80
2024-03-16T04:43:48.678Z,10.80
2024-03-16T04:46:16.914Z,10.80
2024-03-16T04:48:44.954Z,10.80
2024-03-16T04:51:15.667Z,10.90
2024-03-16T04:53:43.166Z,10.90
2024-03-16T04:56:10.567Z,10.90
2024-03-16T04:58:38.125Z,10.90
2024-03-16T05:01:06.730Z,10.90
2024-03-16T05:03:34.399Z,10.90
2024-03-16T05:06:01.869Z,10.90
2024-03-16T05:08:30.768Z,10.90
2024-03-16T05:11:00.090Z,10.90
2024-03-16T05:13:32.715Z,10.80
2024-03-16T05:16:09.004Z,10.80
2024-03-16T05:18:36.930Z,10.80
2024-03-16T05:21:05.789Z,10.80
2024-03-16T05:23:33.342Z,10.70
2024-03-16T05:26:01.368Z,10.70
2024-03-16T05:28:29.023Z,10.70
2024-03-16T05:30:56.751Z,10.70
2024-03-16T05:33:24.481Z,10.70
2024-03-16T05:35:51.995Z,10.70
2024-03-16T05:38:19.458Z,10.70
2024-03-16T05:40:48.388Z,10.70
2024-03-16T05:43:16.343Z,10.70
2024-03-16T05:45:43.882Z,10.70
2024-03-16T05:48:11.479Z,10.60
2024-03-16T05:50:38.992Z,10.60
2024-03-16T05:53:06.489Z,10.60
2024-03-16T05:55:34.090Z,10.60
2024-03-16T05:58:01.703Z,10.60
2024-03-16T06:00:29.191Z,10.60
2024-03-16T06:02:57.234Z,10.60
2024-03-16T06:05:24.765Z,10.50
2024-03-16T06:07:52.326Z,10.50
2024-03-16T06:10:20.745Z,10.50
2024-03-16T06:12:48.240Z,10.50
2024-03-16T06:15:15.763Z,10.50
2024-03-16T06:17:43.230Z,10.50
2024-03-16T06:20:14.388Z,10.50
2024-03-16T06:22:42.579Z,10.50
2024-03-16T06:25:12.664Z,10.50
2024-03-16T06:27:44.711Z,10.50
2024-03-16T06:30:14.272Z,10.50
2024-03-16T06:32:56.715Z,10.50
2024-03-16T06:35:24.395Z,10.50
2024-03-16T06:37:51.816Z,10.50
2024-03-16T06:40:19.487Z,10.50
2024-03-16T06:42:48.711Z,10.50
2024-03-16T06:45:16.301Z,10.50
2024-03-16T06:47:44.609Z,10.50
2024-03-16T06:50:12.738Z,10.50
2024-03-16T06:52:40.866Z,10.60
2024-03-16T06:55:09.055Z,10.50
2024-03-16T06:57:36.732Z,10.50
2024-03-16T07:00:05.230Z,10.60
2024-03-16T07:02:33.008Z,10.60
2024-03-16T07:05:01.745Z,10.60
2024-03-16T07:07:29.400Z,10.60
2024-03-16T07:09:56.971Z,10.70
2024-03-16T07:12:24.600Z,10.70
2024-03-16T07:14:52.161Z,10.70
2024-03-16T07:17:19.889Z,10.70
2024-03-16T07:19:47.452Z,10.70
2024-03-16T07:22:15.012Z,10.70
2024-03-16T07:24:42.754Z,10.70
2024-03-16T07:27:10.996Z,10.70
2024-03-16T07:29:38.569Z,10.70
2024-03-16T07:32:06.934Z,10.70
2024-03-16T07:34:35.681Z,10.70
2024-03-16T07:37:03.286Z,10.70
2024-03-16T07:39:31.805Z,10.70
2024-03-16T07:41:59.337Z,10.80
2024-03-16T07:44:26.817Z,10.70
2024-03-16T07:46:54.301Z,10.80
2024-03-16T07:49:21.796Z,10.80
2024-03-16T07:51:49.364Z,10.80
2024-03-16T07:54:17.034Z,10.90
2024-03-16T07:56:44.930Z,10.90
2024-03-16T07:59:13.722Z,10.90
2024-03-16T08:01:41.577Z,10.90
2024-03-16T08:04:09.288Z,10.90
2024-03-16T08:06:36.803Z,11.00
2024-03-16T08:09:06.526Z,10.90
2024-03-16T08:11:35.362Z,10.90
2024-03-16T08:14:06.365Z,10.90
2024-03-16T08:16:33.950Z,10.90
2024-03-16T08:19:01.565Z,10.90
2024-03-16T08:21:29.432Z,10.80
2024-03-16T08:23:57.085Z,10.80
2024-03-16T08:26:26.183Z,10.90
2024-03-16T08:28:53.681Z,10.90
2024-03-16T08:31:21.257Z,10.90
2024-03-16T08:33:48.878Z,10.90
2024-03-16T08:36:16.430Z,10.90
2024-03-16T08:38:43.943Z,10.90
2024-03-16T08:41:11.450Z,10.90
2024-03-16T08:43:38.945Z,11.00
2024-03-16T08:46:07.793Z,11.00
2024-03-16T08:48:35.838Z,11.00
2024-03-16T08:51:05.545Z,11.10
2024-03-16T08:53:33.108Z,11.10
2024-03-16T08:56:02.230Z,11.20
2024-03-16T08:58:31.170Z,11.20
2024-03-16T09:00:59.787Z,11.30
2024-03-16T09:03:27.331Z,11.40
2024-03-16T09:05:54.814Z,11.50
2024-03-16T09:08:22.292Z,11.50
2024-03-16T09:10:50.397Z,11.60
2024-03-16T09:13:18.097Z,11.70
2024-03-16T09:15:45.621Z,11.80
2024-03-16T09:18:13.458Z,11.90
2024-03-16T09:20:44.903Z,11.90
2024-03-16T09:23:14.826Z,12.00
2024-03-16T09:25:44.443Z,12.10
2024-03-16T09:28:14.787Z,12.20
2024-03-16T09:30:46.301Z,12.20
2024-03-16T09:33:14.116Z,12.20
2024-03-16T09:35:43.351Z,12.30
2024-03-16T09:38:11.344Z,12.30
2024-03-16T09:40:44.776Z,12.40
